sensor_id;sensor_type;location;lat;lon;timestamp;temperature;humidity
28763;DHT22;15918;51.270;6.522;2023-12-29T00:01:59;12.70;69.00
28763;DHT22;15918;51.270;6.522;2023-12-29T00:04:28;12.70;69.10
28763;DHT22;15918;51.270;6.522;2023-12-29T00:06:53;12.70;69.10
28763;DHT22;15918;51.270;6.522;2023-12-29T00:09:19;12.70;69.00
28763;DHT22;15918;51.270;6.522;2023-12-29T00:11:49;12.70;69.00
28763;DHT22;15918;51.270;6.522;2023-12-29T00:14:15;12.70;69.00
28763;DHT22;15918;51.270;6.522;2023-12-29T00:16:41;12.70;68.90
28763;DHT22;15918;51.270;6.522;2023-12-29T00:19:07;12.70;69.00
28763;DHT22;15918;51.270;6.522;2023-12-29T00:21:32;12.70;69.00
28763;DHT22;15918;51.270;6.522;2023-12-29T00:23:58;12.70;69.00
28763;DHT22;15918;51.270;6.522;2023-12-29T00:26:23;12.70;68.90
28763;DHT22;15918;51.270;6.522;2023-12-29T00:28:49;12.70;68.90
28763;DHT22;15918;51.270;6.522;2023-12-29T00:31:15;12.70;68.80
28763;DHT22;15918;51.270;6.522;2023-12-29T00:33:44;12.70;68.80
28763;DHT22;15918;51.270;6.522;2023-12-29T00:36:16;12.70;68.70
28763;DHT22;15918;51.270;6.522;2023-12-29T00:38:42;12.80;68.70
28763;DHT22;15918;51.270;6.522;2023-12-29T00:41:07;12.70;68.70
28763;DHT22;15918;51.270;6.522;2023-12-29T00:43:33;12.70;68.70
28763;DHT22;15918;51.270;6.522;2023-12-29T00:46:04;12.80;68.70
28763;DHT22;15918;51.270;6.522;2023-12-29T00:48:33;12.80;68.70
28763;DHT22;15918;51.270;6.522;2023-12-29T00:51:01;12.80;68.60
28763;DHT22;15918;51.270;6.522;2023-12-29T00:53:28;12.80;68.70
28763;DHT22;15918;51.270;6.522;2023-12-29T00:55:54;12.70;68.60
28763;DHT22;15918;51.270;6.522;2023-12-29T00:58:20;12.80;68.60
28763;DHT22;15918;51.270;6.522;2023-12-29T01:00:45;12.80;68.60
28763;DHT22;15918;51.270;6.522;2023-12-29T01:03:11;12.80;68.60
28763;DHT22;15918;51.270;6.522;2023-12-29T01:05:37;12.80;68.60
28763;DHT22;15918;51.270;6.522;2023-12-29T01:08:02;12.80;68.60
28763;DHT22;15918;51.270;6.522;2023-12-29T01:10:28;12.80;68.70
28763;DHT22;15918;51.270;6.522;2023-12-29T01:12:53;12.80;68.70
28763;DHT22;15918;51.270;6.522;2023-12-29T01:15:19;12.70;68.60
28763;DHT22;15918;51.270;6.522;2023-12-29T01:17:44;12.80;68.70
28763;DHT22;15918;51.270;6.522;2023-12-29T01:20:10;12.80;68.70
28763;DHT22;15918;51.270;6.522;2023-12-29T01:22:35;12.80;68.60
28763;DHT22;15918;51.270;6.522;2023-12-29T01:25:01;12.80;68.60
28763;DHT22;15918;51.270;6.522;2023-12-29T01:27:28;12.80;68.70
28763;DHT22;15918;51.270;6.522;2023-12-29T01:29:54;12.80;68.70
28763;DHT22;15918;51.270;6.522;2023-12-29T01:32:20;12.80;68.70
28763;DHT22;15918;51.270;6.522;2023-12-29T01:34:46;12.80;68.80
28763;DHT22;15918;51.270;6.522;2023-12-29T01:37:11;12.80;68.70
28763;DHT22;15918;51.270;6.522;2023-12-29T01:39:37;12.80;68.70
28763;DHT22;15918;51.270;6.522;2023-12-29T01:42:03;12.80;68.70
28763;DHT22;15918;51.270;6.522;2023-12-29T01:44:29;12.80;68.70
28763;DHT22;15918;51.270;6.522;2023-12-29T01:46:58;12.80;68.70
28763;DHT22;15918;51.270;6.522;2023-12-29T01:49:24;12.80;68.70
28763;DHT22;15918;51.270;6.522;2023-12-29T01:51:55;12.70;69.40
28763;DHT22;15918;51.270;6.522;2023-12-29T01:54:21;12.80;68.80
28763;DHT22;15918;51.270;6.522;2023-12-29T01:56:52;12.80;68.80
28763;DHT22;15918;51.270;6.522;2023-12-29T01:59:21;12.80;68.90
28763;DHT22;15918;51.270;6.522;2023-12-29T02:01:46;12.80;69.00
28763;DHT22;15918;51.270;6.522;2023-12-29T02:04:13;12.80;69.10
28763;DHT22;15918;51.270;6.522;2023-12-29T02:06:39;12.80;69.40
28763;DHT22;15918;51.270;6.522;2023-12-29T02:09:05;12.80;69.70
28763;DHT22;15918;51.270;6.522;2023-12-29T02:11:31;12.80;69.90
28763;DHT22;15918;51.270;6.522;2023-12-29T02:13:58;12.80;70.10
28763;DHT22;15918;51.270;6.522;2023-12-29T02:16:52;12.80;70.40
28763;DHT22;15918;51.270;6.522;2023-12-29T02:19:40;12.80;70.30
28763;DHT22;15918;51.270;6.522;2023-12-29T02:22:07;12.80;70.80
28763;DHT22;15918;51.270;6.522;2023-12-29T02:24:34;12.70;71.00
28763;DHT22;15918;51.270;6.522;2023-12-29T02:27:18;12.70;71.00
28763;DHT22;15918;51.270;6.522;2023-12-29T02:29:53;12.80;71.00
28763;DHT22;15918;51.270;6.522;2023-12-29T02:32:22;12.80;71.20
28763;DHT22;15918;51.270;6.522;2023-12-29T02:34:49;12.70;71.30
28763;DHT22;15918;51.270;6.522;2023-12-29T02:37:16;12.80;71.40
28763;DHT22;15918;51.270;6.522;2023-12-29T02:39:42;12.80;71.40
28763;DHT22;15918;51.270;6.522;2023-12-29T02:42:07;12.80;71.40
28763;DHT22;15918;51.270;6.522;2023-12-29T02:44:33;12.80;71.50
28763;DHT22;15918;51.270;6.522;2023-12-29T02:46:58;12.70;71.60
28763;DHT22;15918;51.270;6.522;2023-12-29T02:49:26;12.70;71.70
28763;DHT22;15918;51.270;6.522;2023-12-29T02:51:52;12.70;71.70
28763;DHT22;15918;51.270;6.522;2023-12-29T02:54:18;12.80;71.80
28763;DHT22;15918;51.270;6.522;2023-12-29T02:56:43;12.70;71.70
28763;DHT22;15918;51.270;6.522;2023-12-29T02:59:08;12.70;71.80
28763;DHT22;15918;51.270;6.522;2023-12-29T03:01:34;12.70;71.80
28763;DHT22;15918;51.270;6.522;2023-12-29T03:04:01;12.70;71.90
28763;DHT22;15918;51.270;6.522;2023-12-29T03:06:26;12.70;71.90
28763;DHT22;15918;51.270;6.522;2023-12-29T03:08:52;12.70;72.00
28763;DHT22;15918;51.270;6.522;2023-12-29T03:11:18;12.70;71.90
28763;DHT22;15918;51.270;6.522;2023-12-29T03:13:43;12.70;71.80
28763;DHT22;15918;51.270;6.522;2023-12-29T03:16:09;12.70;71.80
28763;DHT22;15918;51.270;6.522;2023-12-29T03:18:34;12.70;71.80
28763;DHT22;15918;51.270;6.522;2023-12-29T03:21:04;12.70;71.80
28763;DHT22;15918;51.270;6.522;2023-12-29T03:23:30;12.70;71.80
28763;DHT22;15918;51.270;6.522;2023-12-29T03:25:55;12.70;71.80
28763;DHT22;15918;51.270;6.522;2023-12-29T03:28:21;12.70;71.80
28763;DHT22;15918;51.270;6.522;2023-12-29T03:30:46;12.80;71.70
28763;DHT22;15918;51.270;6.522;2023-12-29T03:33:12;12.70;71.60
28763;DHT22;15918;51.270;6.522;2023-12-29T03:35:38;12.70;71.60
28763;DHT22;15918;51.270;6.522;2023-12-29T03:38:03;12.80;71.60
28763;DHT22;15918;51.270;6.522;2023-12-29T03:40:29;12.70;71.50
28763;DHT22;15918;51.270;6.522;2023-12-29T03:42:55;12.70;71.40
28763;DHT22;15918;51.270;6.522;2023-12-29T03:45:20;12.70;71.40
28763;DHT22;15918;51.270;6.522;2023-12-29T03:47:46;12.80;71.40
28763;DHT22;15918;51.270;6.522;2023-12-29T03:50:11;12.70;71.40
28763;DHT22;15918;51.270;6.522;2023-12-29T03:52:37;12.70;71.30
28763;DHT22;15918;51.270;6.522;2023-12-29T03:55:03;12.70;71.30
28763;DHT22;15918;51.270;6.522;2023-12-29T03:57:28;12.70;71.20
28763;DHT22;15918;51.270;6.522;2023-12-29T03:59:54;12.70;71.20
28763;DHT22;15918;51.270;6.522;2023-12-29T04:02:19;12.80;71.20
28763;DHT22;15918;51.270;6.522;2023-12-29T04:04:45;12.70;71.20
28763;DHT22;15918;51.270;6.522;2023-12-29T04:07:10;12.70;71.10
28763;DHT22;15918;51.270;6.522;2023-12-29T04:09:36;12.80;71.30
28763;DHT22;15918;51.270;6.522;2023-12-29T04:12:02;12.80;71.40
28763;DHT22;15918;51.270;6.522;2023-12-29T04:14:27;12.80;71.50
28763;DHT22;15918;51.270;6.522;2023-12-29T04:16:53;12.80;71.70
28763;DHT22;15918;51.270;6.522;2023-12-29T04:19:19;12.80;71.80
28763;DHT22;15918;51.270;6.522;2023-12-29T04:21:44;12.80;71.90
28763;DHT22;15918;51.270;6.522;2023-12-29T04:24:10;12.80;72.00
28763;DHT22;15918;51.270;6.522;2023-12-29T04:26:38;12.70;71.90
28763;DHT22;15918;51.270;6.522;2023-12-29T04:29:04;12.80;71.90
28763;DHT22;15918;51.270;6.522;2023-12-29T04:31:29;12.70;71.90
28763;DHT22;15918;51.270;6.522;2023-12-29T04:33:55;12.70;71.80
28763;DHT22;15918;51.270;6.522;2023-12-29T04:36:20;12.70;71.80
28763;DHT22;15918;51.270;6.522;2023-12-29T04:38:46;12.70;71.70
28763;DHT22;15918;51.270;6.522;2023-12-29T04:41:12;12.70;71.60
28763;DHT22;15918;51.270;6.522;2023-12-29T04:43:38;12.70;71.60
28763;DHT22;15918;51.270;6.522;2023-12-29T04:46:04;12.70;71.50
28763;DHT22;15918;51.270;6.522;2023-12-29T04:48:29;12.70;71.40
28763;DHT22;15918;51.270;6.522;2023-12-29T04:50:55;12.70;71.30
28763;DHT22;15918;51.270;6.522;2023-12-29T04:53:21;12.70;71.20
28763;DHT22;15918;51.270;6.522;2023-12-29T04:55:46;12.70;71.10
28763;DHT22;15918;51.270;6.522;2023-12-29T04:58:12;12.70;71.00
28763;DHT22;15918;51.270;6.522;2023-12-29T05:00:37;12.70;71.00
28763;DHT22;15918;51.270;6.522;2023-12-29T05:03:03;12.70;70.90
28763;DHT22;15918;51.270;6.522;2023-12-29T05:05:29;12.70;70.80
28763;DHT22;15918;51.270;6.522;2023-12-29T05:07:54;12.70;70.70
28763;DHT22;15918;51.270;6.522;2023-12-29T05:10:20;12.70;70.70
28763;DHT22;15918;51.270;6.522;2023-12-29T05:12:45;12.70;70.60
28763;DHT22;15918;51.270;6.522;2023-12-29T05:15:11;12.70;70.60
28763;DHT22;15918;51.270;6.522;2023-12-29T05:17:36;12.70;70.50
28763;DHT22;15918;51.270;6.522;2023-12-29T05:20:06;12.70;70.60
28763;DHT22;15918;51.270;6.522;2023-12-29T05:22:35;12.70;70.50
28763;DHT22;15918;51.270;6.522;2023-12-29T05:25:00;12.70;70.40
28763;DHT22;15918;51.270;6.522;2023-12-29T05:27:26;12.70;70.40
28763;DHT22;15918;51.270;6.522;2023-12-29T05:29:52;12.80;70.40
28763;DHT22;15918;51.270;6.522;2023-12-29T05:32:18;12.70;70.30
28763;DHT22;15918;51.270;6.522;2023-12-29T05:34:43;12.70;70.30
28763;DHT22;15918;51.270;6.522;2023-12-29T05:37:09;12.70;70.40
28763;DHT22;15918;51.270;6.522;2023-12-29T05:39:34;12.70;70.30
28763;DHT22;15918;51.270;6.522;2023-12-29T05:42:00;12.70;70.40
28763;DHT22;15918;51.270;6.522;2023-12-29T05:44:25;12.70;70.30
28763;DHT22;15918;51.270;6.522;2023-12-29T05:46:51;12.70;70.30
28763;DHT22;15918;51.270;6.522;2023-12-29T05:49:17;12.70;70.20
28763;DHT22;15918;51.270;6.522;2023-12-29T05:51:44;12.70;70.20
28763;DHT22;15918;51.270;6.522;2023-12-29T05:54:09;12.70;70.20
28763;DHT22;15918;51.270;6.522;2023-12-29T05:56:35;12.70;70.20
28763;DHT22;15918;51.270;6.522;2023-12-29T05:59:00;12.70;70.20
28763;DHT22;15918;51.270;6.522;2023-12-29T06:01:26;12.70;70.20
28763;DHT22;15918;51.270;6.522;2023-12-29T06:03:51;12.70;70.20
28763;DHT22;15918;51.270;6.522;2023-12-29T06:06:17;12.70;70.20
28763;DHT22;15918;51.270;6.522;2023-12-29T06:08:43;12.70;70.20
28763;DHT22;15918;51.270;6.522;2023-12-29T06:11:08;12.70;70.20
28763;DHT22;15918;51.270;6.522;2023-12-29T06:13:34;12.70;70.20
28763;DHT22;15918;51.270;6.522;2023-12-29T06:15:59;12.70;70.20
28763;DHT22;15918;51.270;6.522;2023-12-29T06:18:25;12.70;70.30
28763;DHT22;15918;51.270;6.522;2023-12-29T06:20:50;12.70;70.30
28763;DHT22;15918;51.270;6.522;2023-12-29T06:23:16;12.70;70.30
28763;DHT22;15918;51.270;6.522;2023-12-29T06:25:42;12.70;70.20
28763;DHT22;15918;51.270;6.522;2023-12-29T06:28:08;12.70;70.30
28763;DHT22;15918;51.270;6.522;2023-12-29T06:30:33;12.70;70.40
28763;DHT22;15918;51.270;6.522;2023-12-29T06:32:59;12.70;70.30
28763;DHT22;15918;51.270;6.522;2023-12-29T06:35:25;12.70;70.30
28763;DHT22;15918;51.270;6.522;2023-12-29T06:37:50;12.70;70.20
28763;DHT22;15918;51.270;6.522;2023-12-29T06:40:16;12.70;70.20
28763;DHT22;15918;51.270;6.522;2023-12-29T06:42:42;12.70;70.30
28763;DHT22;15918;51.270;6.522;2023-12-29T06:45:08;12.70;70.20
28763;DHT22;15918;51.270;6.522;2023-12-29T06:47:33;12.70;70.20
28763;DHT22;15918;51.270;6.522;2023-12-29T06:49:59;12.70;70.20
28763;DHT22;15918;51.270;6.522;2023-12-29T06:52:24;12.70;70.30
28763;DHT22;15918;51.270;6.522;2023-12-29T06:54:51;12.70;70.40
28763;DHT22;15918;51.270;6.522;2023-12-29T06:57:17;12.70;70.50
28763;DHT22;15918;51.270;6.522;2023-12-29T06:59:42;12.70;70.60
28763;DHT22;15918;51.270;6.522;2023-12-29T07:02:08;12.70;70.80
28763;DHT22;15918;51.270;6.522;2023-12-29T07:04:33;12.70;71.00
28763;DHT22;15918;51.270;6.522;2023-12-29T07:07:00;12.70;71.10
28763;DHT22;15918;51.270;6.522;2023-12-29T07:09:26;12.70;71.30
28763;DHT22;15918;51.270;6.522;2023-12-29T07:11:51;12.70;71.60
28763;DHT22;15918;51.270;6.522;2023-12-29T07:14:17;12.70;71.90
28763;DHT22;15918;51.270;6.522;2023-12-29T07:16:43;12.70;72.20
28763;DHT22;15918;51.270;6.522;2023-12-29T07:19:09;12.70;72.40
28763;DHT22;15918;51.270;6.522;2023-12-29T07:21:34;12.70;72.50
28763;DHT22;15918;51.270;6.522;2023-12-29T07:24:00;12.70;72.70
28763;DHT22;15918;51.270;6.522;2023-12-29T07:26:25;12.70;72.80
28763;DHT22;15918;51.270;6.522;2023-12-29T07:28:51;12.70;73.00
28763;DHT22;15918;51.270;6.522;2023-12-29T07:31:20;12.70;73.20
28763;DHT22;15918;51.270;6.522;2023-12-29T07:33:46;12.70;73.20
28763;DHT22;15918;51.270;6.522;2023-12-29T07:36:11;12.80;73.40
28763;DHT22;15918;51.270;6.522;2023-12-29T07:38:37;12.70;73.40
28763;DHT22;15918;51.270;6.522;2023-12-29T07:41:03;12.60;73.40
28763;DHT22;15918;51.270;6.522;2023-12-29T07:43:29;12.70;73.60
28763;DHT22;15918;51.270;6.522;2023-12-29T07:45:54;12.70;73.60
28763;DHT22;15918;51.270;6.522;2023-12-29T07:48:20;12.70;73.70
28763;DHT22;15918;51.270;6.522;2023-12-29T07:50:45;12.70;73.90
28763;DHT22;15918;51.270;6.522;2023-12-29T07:53:11;12.60;73.80
28763;DHT22;15918;51.270;6.522;2023-12-29T07:55:42;12.60;73.90
28763;DHT22;15918;51.270;6.522;2023-12-29T07:58:07;12.70;74.10
28763;DHT22;15918;51.270;6.522;2023-12-29T08:00:35;12.60;74.20
28763;DHT22;15918;51.270;6.522;2023-12-29T08:03:01;12.70;74.40
28763;DHT22;15918;51.270;6.522;2023-12-29T08:05:27;12.70;74.50
28763;DHT22;15918;51.270;6.522;2023-12-29T08:07:52;12.60;74.50
28763;DHT22;15918;51.270;6.522;2023-12-29T08:10:18;12.70;74.60
28763;DHT22;15918;51.270;6.522;2023-12-29T08:12:43;12.60;74.50
28763;DHT22;15918;51.270;6.522;2023-12-29T08:15:09;12.70;74.70
28763;DHT22;15918;51.270;6.522;2023-12-29T08:17:35;12.70;74.80
28763;DHT22;15918;51.270;6.522;2023-12-29T08:20:01;12.60;74.70
28763;DHT22;15918;51.270;6.522;2023-12-29T08:22:29;12.70;74.90
28763;DHT22;15918;51.270;6.522;2023-12-29T08:24:55;12.60;75.00
28763;DHT22;15918;51.270;6.522;2023-12-29T08:27:25;12.60;75.00
28763;DHT22;15918;51.270;6.522;2023-12-29T08:29:53;12.60;75.00
28763;DHT22;15918;51.270;6.522;2023-12-29T08:32:19;12.60;75.20
28763;DHT22;15918;51.270;6.522;2023-12-29T08:34:45;12.60;75.20
28763;DHT22;15918;51.270;6.522;2023-12-29T08:37:10;12.60;75.20
28763;DHT22;15918;51.270;6.522;2023-12-29T08:39:36;12.60;75.30
28763;DHT22;15918;51.270;6.522;2023-12-29T08:42:02;12.60;75.30
28763;DHT22;15918;51.270;6.522;2023-12-29T08:44:27;12.60;75.40
28763;DHT22;15918;51.270;6.522;2023-12-29T08:46:53;12.60;75.50
28763;DHT22;15918;51.270;6.522;2023-12-29T08:49:18;12.60;75.60
28763;DHT22;15918;51.270;6.522;2023-12-29T08:51:44;12.60;75.50
28763;DHT22;15918;51.270;6.522;2023-12-29T08:54:10;12.60;75.60
28763;DHT22;15918;51.270;6.522;2023-12-29T08:56:35;12.60;76.40
28763;DHT22;15918;51.270;6.522;2023-12-29T08:59:01;12.60;75.70
28763;DHT22;15918;51.270;6.522;2023-12-29T09:01:26;12.60;75.80
28763;DHT22;15918;51.270;6.522;2023-12-29T09:03:52;12.60;75.90
28763;DHT22;15918;51.270;6.522;2023-12-29T09:06:18;12.60;75.90
28763;DHT22;15918;51.270;6.522;2023-12-29T09:08:44;12.60;76.00
28763;DHT22;15918;51.270;6.522;2023-12-29T09:11:09;12.60;76.20
28763;DHT22;15918;51.270;6.522;2023-12-29T09:13:35;12.60;76.20
28763;DHT22;15918;51.270;6.522;2023-12-29T09:16:00;12.60;76.20
28763;DHT22;15918;51.270;6.522;2023-12-29T09:18:26;12.60;76.20
28763;DHT22;15918;51.270;6.522;2023-12-29T09:20:52;12.60;76.30
28763;DHT22;15918;51.270;6.522;2023-12-29T09:23:17;12.60;76.20
28763;DHT22;15918;51.270;6.522;2023-12-29T09:25:43;12.60;76.20
28763;DHT22;15918;51.270;6.522;2023-12-29T09:28:09;12.60;76.30
28763;DHT22;15918;51.270;6.522;2023-12-29T09:30:35;12.60;76.40
28763;DHT22;15918;51.270;6.522;2023-12-29T09:33:00;12.70;76.50
28763;DHT22;15918;51.270;6.522;2023-12-29T09:35:26;12.60;76.50
28763;DHT22;15918;51.270;6.522;2023-12-29T09:37:51;12.70;76.70
28763;DHT22;15918;51.270;6.522;2023-12-29T09:40:17;12.70;76.80
28763;DHT22;15918;51.270;6.522;2023-12-29T09:42:43;12.70;76.80
28763;DHT22;15918;51.270;6.522;2023-12-29T09:45:13;12.70;77.00
28763;DHT22;15918;51.270;6.522;2023-12-29T09:47:41;12.70;77.20
28763;DHT22;15918;51.270;6.522;2023-12-29T09:50:10;12.70;77.20
28763;DHT22;15918;51.270;6.522;2023-12-29T09:52:38;12.70;77.20
28763;DHT22;15918;51.270;6.522;2023-12-29T09:55:05;12.70;77.30
28763;DHT22;15918;51.270;6.522;2023-12-29T09:57:33;12.70;77.30
28763;DHT22;15918;51.270;6.522;2023-12-29T09:59:59;12.70;77.30
28763;DHT22;15918;51.270;6.522;2023-12-29T10:02:25;12.70;77.40
28763;DHT22;15918;51.270;6.522;2023-12-29T10:04:50;12.70;77.60
28763;DHT22;15918;51.270;6.522;2023-12-29T10:07:26;12.70;77.60
28763;DHT22;15918;51.270;6.522;2023-12-29T10:09:58;12.70;77.60
28763;DHT22;15918;51.270;6.522;2023-12-29T10:12:25;12.70;77.80
28763;DHT22;15918;51.270;6.522;2023-12-29T10:15:05;12.70;77.90
28763;DHT22;15918;51.270;6.522;2023-12-29T10:20:33;12.70;77.90
28763;DHT22;15918;51.270;6.522;2023-12-29T10:23:04;12.70;77.70
28763;DHT22;15918;51.270;6.522;2023-12-29T10:25:31;12.70;78.00
28763;DHT22;15918;51.270;6.522;2023-12-29T10:27:57;12.70;78.00
28763;DHT22;15918;51.270;6.522;2023-12-29T10:30:22;12.70;78.00
28763;DHT22;15918;51.270;6.522;2023-12-29T10:32:52;12.70;77.90
28763;DHT22;15918;51.270;6.522;2023-12-29T10:35:18;12.70;77.90
28763;DHT22;15918;51.270;6.522;2023-12-29T10:37:43;12.70;78.00
28763;DHT22;15918;51.270;6.522;2023-12-29T10:40:17;12.70;78.00
28763;DHT22;15918;51.270;6.522;2023-12-29T10:42:53;12.80;78.10
28763;DHT22;15918;51.270;6.522;2023-12-29T10:45:19;12.70;78.00
28763;DHT22;15918;51.270;6.522;2023-12-29T10:47:44;12.70;78.20
28763;DHT22;15918;51.270;6.522;2023-12-29T10:50:10;12.70;78.20
28763;DHT22;15918;51.270;6.522;2023-12-29T10:52:36;12.80;78.30
28763;DHT22;15918;51.270;6.522;2023-12-29T10:55:10;12.80;78.20
28763;DHT22;15918;51.270;6.522;2023-12-29T10:57:37;12.80;78.20
28763;DHT22;15918;51.270;6.522;2023-12-29T11:00:03;12.80;78.30
28763;DHT22;15918;51.270;6.522;2023-12-29T11:02:29;12.80;78.30
28763;DHT22;15918;51.270;6.522;2023-12-29T11:05:06;12.80;78.30
28763;DHT22;15918;51.270;6.522;2023-12-29T11:07:33;12.80;78.10
28763;DHT22;15918;51.270;6.522;2023-12-29T11:10:06;12.80;78.40
28763;DHT22;15918;51.270;6.522;2023-12-29T11:12:34;12.80;78.30
28763;DHT22;15918;51.270;6.522;2023-12-29T11:15:05;12.90;78.40
28763;DHT22;15918;51.270;6.522;2023-12-29T11:17:33;12.80;78.30
28763;DHT22;15918;51.270;6.522;2023-12-29T11:20:00;12.80;78.30
28763;DHT22;15918;51.270;6.522;2023-12-29T11:22:28;12.80;78.20
28763;DHT22;15918;51.270;6.522;2023-12-29T11:24:55;12.90;78.30
28763;DHT22;15918;51.270;6.522;2023-12-29T11:27:21;12.90;78.20
28763;DHT22;15918;51.270;6.522;2023-12-29T11:29:47;12.90;78.20
28763;DHT22;15918;51.270;6.522;2023-12-29T11:32:20;12.90;78.30
28763;DHT22;15918;51.270;6.522;2023-12-29T11:34:54;12.90;78.20
28763;DHT22;15918;51.270;6.522;2023-12-29T11:37:37;12.90;78.40
28763;DHT22;15918;51.270;6.522;2023-12-29T11:40:22;12.90;78.40
28763;DHT22;15918;51.270;6.522;2023-12-29T11:42:52;12.90;78.40
28763;DHT22;15918;51.270;6.522;2023-12-29T11:45:33;12.90;78.60
28763;DHT22;15918;51.270;6.522;2023-12-29T11:48:02;13.00;78.40
28763;DHT22;15918;51.270;6.522;2023-12-29T11:50:33;12.90;78.70
28763;DHT22;15918;51.270;6.522;2023-12-29T11:53:00;12.90;78.60
28763;DHT22;15918;51.270;6.522;2023-12-29T11:55:30;12.90;78.60
28763;DHT22;15918;51.270;6.522;2023-12-29T11:57:57;12.90;78.60
28763;DHT22;15918;51.270;6.522;2023-12-29T12:00:45;12.90;78.70
28763;DHT22;15918;51.270;6.522;2023-12-29T12:03:28;13.00;78.50
28763;DHT22;15918;51.270;6.522;2023-12-29T12:05:55;12.90;78.80
28763;DHT22;15918;51.270;6.522;2023-12-29T12:08:34;12.90;78.90
28763;DHT22;15918;51.270;6.522;2023-12-29T12:13:56;12.90;78.40
28763;DHT22;15918;51.270;6.522;2023-12-29T12:16:50;12.90;78.60
28763;DHT22;15918;51.270;6.522;2023-12-29T12:19:20;12.90;78.10
28763;DHT22;15918;51.270;6.522;2023-12-29T12:21:47;12.90;78.60
28763;DHT22;15918;51.270;6.522;2023-12-29T12:24:14;12.90;78.50
28763;DHT22;15918;51.270;6.522;2023-12-29T12:26:40;12.90;78.50
28763;DHT22;15918;51.270;6.522;2023-12-29T12:29:07;12.90;78.60
28763;DHT22;15918;51.270;6.522;2023-12-29T12:31:33;12.90;78.60
28763;DHT22;15918;51.270;6.522;2023-12-29T12:33:59;12.90;78.70
28763;DHT22;15918;51.270;6.522;2023-12-29T12:36:28;12.90;78.70
28763;DHT22;15918;51.270;6.522;2023-12-29T12:38:55;12.90;78.80
28763;DHT22;15918;51.270;6.522;2023-12-29T12:41:21;12.90;78.80
28763;DHT22;15918;51.270;6.522;2023-12-29T12:46:34;13.00;78.90
28763;DHT22;15918;51.270;6.522;2023-12-29T12:49:03;12.90;79.20
28763;DHT22;15918;51.270;6.522;2023-12-29T12:51:31;12.90;79.00
28763;DHT22;15918;51.270;6.522;2023-12-29T12:53:57;13.00;79.10
28763;DHT22;15918;51.270;6.522;2023-12-29T12:56:23;13.00;79.10
28763;DHT22;15918;51.270;6.522;2023-12-29T12:58:56;13.00;79.30
28763;DHT22;15918;51.270;6.522;2023-12-29T13:01:23;13.00;79.30
28763;DHT22;15918;51.270;6.522;2023-12-29T13:03:48;13.00;79.50
28763;DHT22;15918;51.270;6.522;2023-12-29T13:06:14;13.00;79.50
28763;DHT22;15918;51.270;6.522;2023-12-29T13:08:42;13.00;79.40
28763;DHT22;15918;51.270;6.522;2023-12-29T13:11:07;13.00;79.40
28763;DHT22;15918;51.270;6.522;2023-12-29T13:13:40;13.00;79.40
28763;DHT22;15918;51.270;6.522;2023-12-29T13:16:07;13.00;79.30
28763;DHT22;15918;51.270;6.522;2023-12-29T13:18:33;13.00;79.40
28763;DHT22;15918;51.270;6.522;2023-12-29T13:21:03;13.00;79.40
28763;DHT22;15918;51.270;6.522;2023-12-29T13:23:29;13.00;79.40
28763;DHT22;15918;51.270;6.522;2023-12-29T13:25:58;12.90;79.30
28763;DHT22;15918;51.270;6.522;2023-12-29T13:28:25;13.00;79.30
28763;DHT22;15918;51.270;6.522;2023-12-29T13:30:52;13.00;79.30
28763;DHT22;15918;51.270;6.522;2023-12-29T13:33:57;13.00;79.20
28763;DHT22;15918;51.270;6.522;2023-12-29T13:36:50;13.00;78.80
28763;DHT22;15918;51.270;6.522;2023-12-29T13:39:42;13.00;78.80
28763;DHT22;15918;51.270;6.522;2023-12-29T13:42:10;13.00;78.90
28763;DHT22;15918;51.270;6.522;2023-12-29T13:44:37;13.00;79.10
28763;DHT22;15918;51.270;6.522;2023-12-29T13:47:03;13.00;78.90
28763;DHT22;15918;51.270;6.522;2023-12-29T13:49:30;13.00;79.20
28763;DHT22;15918;51.270;6.522;2023-12-29T13:52:00;13.00;78.80
28763;DHT22;15918;51.270;6.522;2023-12-29T13:54:26;13.00;78.70
28763;DHT22;15918;51.270;6.522;2023-12-29T13:56:53;13.00;78.60
28763;DHT22;15918;51.270;6.522;2023-12-29T13:59:22;13.00;79.40
28763;DHT22;15918;51.270;6.522;2023-12-29T14:01:53;13.00;78.60
28763;DHT22;15918;51.270;6.522;2023-12-29T14:04:19;13.00;78.50
28763;DHT22;15918;51.270;6.522;2023-12-29T14:06:59;13.00;78.50
28763;DHT22;15918;51.270;6.522;2023-12-29T14:09:26;13.00;78.10
28763;DHT22;15918;51.270;6.522;2023-12-29T14:11:52;12.90;78.30
28763;DHT22;15918;51.270;6.522;2023-12-29T14:14:24;13.00;78.20
28763;DHT22;15918;51.270;6.522;2023-12-29T14:16:51;13.00;78.00
28763;DHT22;15918;51.270;6.522;2023-12-29T14:19:17;13.00;78.10
28763;DHT22;15918;51.270;6.522;2023-12-29T14:21:45;13.00;78.10
28763;DHT22;15918;51.270;6.522;2023-12-29T14:24:15;13.00;78.10
28763;DHT22;15918;51.270;6.522;2023-12-29T14:26:55;13.00;77.90
28763;DHT22;15918;51.270;6.522;2023-12-29T14:29:25;13.00;77.70
28763;DHT22;15918;51.270;6.522;2023-12-29T14:31:52;12.90;77.80
28763;DHT22;15918;51.270;6.522;2023-12-29T14:34:18;12.90;77.60
28763;DHT22;15918;51.270;6.522;2023-12-29T14:36:44;13.00;77.70
28763;DHT22;15918;51.270;6.522;2023-12-29T14:39:11;12.90;77.60
28763;DHT22;15918;51.270;6.522;2023-12-29T14:41:37;13.00;77.60
28763;DHT22;15918;51.270;6.522;2023-12-29T14:44:02;13.00;77.70
28763;DHT22;15918;51.270;6.522;2023-12-29T14:46:28;13.00;77.70
28763;DHT22;15918;51.270;6.522;2023-12-29T14:48:56;12.90;77.60
28763;DHT22;15918;51.270;6.522;2023-12-29T14:51:23;12.90;77.60
28763;DHT22;15918;51.270;6.522;2023-12-29T14:53:49;13.00;77.90
28763;DHT22;15918;51.270;6.522;2023-12-29T14:56:16;12.90;77.80
28763;DHT22;15918;51.270;6.522;2023-12-29T14:58:41;12.90;77.80
28763;DHT22;15918;51.270;6.522;2023-12-29T15:01:08;12.90;77.80
28763;DHT22;15918;51.270;6.522;2023-12-29T15:03:34;12.90;77.80
28763;DHT22;15918;51.270;6.522;2023-12-29T15:06:00;12.90;77.90
28763;DHT22;15918;51.270;6.522;2023-12-29T15:08:26;12.90;78.00
28763;DHT22;15918;51.270;6.522;2023-12-29T15:10:53;12.90;78.00
28763;DHT22;15918;51.270;6.522;2023-12-29T15:13:19;12.90;78.00
28763;DHT22;15918;51.270;6.522;2023-12-29T15:15:45;12.90;78.10
28763;DHT22;15918;51.270;6.522;2023-12-29T15:18:10;12.90;78.10
28763;DHT22;15918;51.270;6.522;2023-12-29T15:20:36;12.90;78.20
28763;DHT22;15918;51.270;6.522;2023-12-29T15:23:01;12.90;78.20
28763;DHT22;15918;51.270;6.522;2023-12-29T15:25:28;12.90;78.30
28763;DHT22;15918;51.270;6.522;2023-12-29T15:27:53;12.90;78.40
28763;DHT22;15918;51.270;6.522;2023-12-29T15:30:20;12.90;78.30
28763;DHT22;15918;51.270;6.522;2023-12-29T15:32:46;12.90;78.30
28763;DHT22;15918;51.270;6.522;2023-12-29T15:35:12;12.90;78.30
28763;DHT22;15918;51.270;6.522;2023-12-29T15:37:37;12.90;78.40
28763;DHT22;15918;51.270;6.522;2023-12-29T15:40:03;12.90;78.40